sensor_id;sensor_type;location;lat;lon;timestamp;temperature;humidity
51175;DHT22;37240;50.104;20.010;2023-06-22T00:04:45;24.40;99.90
51175;DHT22;37240;50.104;20.010;2023-06-22T00:09:45;24.50;99.90
51175;DHT22;37240;50.104;20.010;2023-06-22T00:14:46;24.50;99.90
51175;DHT22;37240;50.104;20.010;2023-06-22T00:19:47;24.50;99.90
51175;DHT22;37240;50.104;20.010;2023-06-22T00:24:48;24.50;99.90
51175;DHT22;37240;50.104;20.010;2023-06-22T00:29:48;24.50;99.90
51175;DHT22;37240;50.104;20.010;2023-06-22T00:34:49;24.50;99.90
51175;DHT22;37240;50.104;20.010;2023-06-22T00:39:49;24.30;99.90
51175;DHT22;37240;50.104;20.010;2023-06-22T00:44:50;24.40;99.90
51175;DHT22;37240;50.104;20.010;2023-06-22T00:49:51;24.30;99.90
51175;DHT22;37240;50.104;20.010;2023-06-22T00:54:51;24.30;99.90
51175;DHT22;37240;50.104;20.010;2023-06-22T00:59:52;24.30;99.90
51175;DHT22;37240;50.104;20.010;2023-06-22T01:04:52;24.20;99.90
51175;DHT22;37240;50.104;20.010;2023-06-22T01:10:13;24.20;99.90
51175;DHT22;37240;50.104;20.010;2023-06-22T01:15:21;24.30;99.90
51175;DHT22;37240;50.104;20.010;2023-06-22T01:20:23;24.20;99.90
51175;DHT22;37240;50.104;20.010;2023-06-22T01:25:48;24.20;99.90
51175;DHT22;37240;50.104;20.010;2023-06-22T01:30:54;24.20;99.90
51175;DHT22;37240;50.104;20.010;2023-06-22T01:35:55;24.10;99.90
51175;DHT22;37240;50.104;20.010;2023-06-22T01:40:57;24.10;99.90
51175;DHT22;37240;50.104;20.010;2023-06-22T01:46:02;24.00;99.90
51175;DHT22;37240;50.104;20.010;2023-06-22T01:51:03;24.00;99.90
51175;DHT22;37240;50.104;20.010;2023-06-22T01:56:04;24.00;99.90
51175;DHT22;37240;50.104;20.010;2023-06-22T02:01:12;23.90;99.90
51175;DHT22;37240;50.104;20.010;2023-06-22T02:06:30;23.90;99.90
51175;DHT22;37240;50.104;20.010;2023-06-22T02:11:32;23.80;99.90
51175;DHT22;37240;50.104;20.010;2023-06-22T02:16:34;23.80;99.90
51175;DHT22;37240;50.104;20.010;2023-06-22T02:21:35;23.70;99.90
51175;DHT22;37240;50.104;20.010;2023-06-22T02:26:53;23.70;99.90
51175;DHT22;37240;50.104;20.010;2023-06-22T02:31:54;23.60;99.90
51175;DHT22;37240;50.104;20.010;2023-06-22T02:36:55;23.50;99.90
51175;DHT22;37240;50.104;20.010;2023-06-22T02:41:56;23.50;99.90
51175;DHT22;37240;50.104;20.010;2023-06-22T02:46:57;23.40;99.90
51175;DHT22;37240;50.104;20.010;2023-06-22T02:57:25;23.30;99.90
51175;DHT22;37240;50.104;20.010;2023-06-22T03:02:28;23.30;99.90
51175;DHT22;37240;50.104;20.010;2023-06-22T03:07:29;23.30;99.90
51175;DHT22;37240;50.104;20.010;2023-06-22T03:12:29;23.30;99.90
51175;DHT22;37240;50.104;20.010;2023-06-22T03:17:30;23.30;99.90
51175;DHT22;37240;50.104;20.010;2023-06-22T03:22:30;23.40;99.90
51175;DHT22;37240;50.104;20.010;2023-06-22T03:27:33;23.40;99.90
51175;DHT22;37240;50.104;20.010;2023-06-22T03:32:36;23.40;99.90
51175;DHT22;37240;50.104;20.010;2023-06-22T03:37:37;23.50;99.90
51175;DHT22;37240;50.104;20.010;2023-06-22T03:42:46;23.60;99.90
51175;DHT22;37240;50.104;20.010;2023-06-22T03:47:56;23.60;99.90
51175;DHT22;37240;50.104;20.010;2023-06-22T03:52:57;23.70;99.90
51175;DHT22;37240;50.104;20.010;2023-06-22T03:57:57;23.70;99.90
51175;DHT22;37240;50.104;20.010;2023-06-22T04:02:58;23.70;99.90
51175;DHT22;37240;50.104;20.010;2023-06-22T04:08:01;23.80;99.90
51175;DHT22;37240;50.104;20.010;2023-06-22T04:13:02;23.90;99.90
51175;DHT22;37240;50.104;20.010;2023-06-22T04:18:05;24.00;99.90
51175;DHT22;37240;50.104;20.010;2023-06-22T04:23:05;24.30;99.90
51175;DHT22;37240;50.104;20.010;2023-06-22T04:28:08;24.60;99.90
51175;DHT22;37240;50.104;20.010;2023-06-22T04:33:09;25.00;99.90
51175;DHT22;37240;50.104;20.010;2023-06-22T04:38:13;25.50;99.90
51175;DHT22;37240;50.104;20.010;2023-06-22T04:43:13;26.40;98.80
51175;DHT22;37240;50.104;20.010;2023-06-22T04:48:14;27.40;96.90
51175;DHT22;37240;50.104;20.010;2023-06-22T04:53:14;28.30;94.60
51175;DHT22;37240;50.104;20.010;2023-06-22T04:58:17;29.10;92.70
51175;DHT22;37240;50.104;20.010;2023-06-22T05:03:36;30.00;91.10
51175;DHT22;37240;50.104;20.010;2023-06-22T05:08:39;31.10;86.30
51175;DHT22;37240;50.104;20.010;2023-06-22T05:13:39;32.00;82.50
51175;DHT22;37240;50.104;20.010;2023-06-22T05:18:40;33.20;76.30
51175;DHT22;37240;50.104;20.010;2023-06-22T05:23:40;34.50;67.80
51175;DHT22;37240;50.104;20.010;2023-06-22T05:28:41;35.30;63.80
51175;DHT22;37240;50.104;20.010;2023-06-22T05:33:43;35.90;60.50
51175;DHT22;37240;50.104;20.010;2023-06-22T05:38:44;36.20;56.90
51175;DHT22;37240;50.104;20.010;2023-06-22T05:43:44;36.80;55.50
51175;DHT22;37240;50.104;20.010;2023-06-22T05:48:45;37.70;53.40
51175;DHT22;37240;50.104;20.010;2023-06-22T05:53:45;38.70;50.70
51175;DHT22;37240;50.104;20.010;2023-06-22T05:58:46;38.60;49.90
51175;DHT22;37240;50.104;20.010;2023-06-22T06:03:47;38.90;49.00
51175;DHT22;37240;50.104;20.010;2023-06-22T06:08:47;38.30;50.50
51175;DHT22;37240;50.104;20.010;2023-06-22T06:13:48;39.20;49.20
51175;DHT22;37240;50.104;20.010;2023-06-22T06:18:48;39.50;48.50
51175;DHT22;37240;50.104;20.010;2023-06-22T06:23:49;39.90;47.90
51175;DHT22;37240;50.104;20.010;2023-06-22T06:28:49;40.00;47.60
51175;DHT22;37240;50.104;20.010;2023-06-22T06:33:50;39.30;48.90
51175;DHT22;37240;50.104;20.010;2023-06-22T06:38:51;38.80;49.90
51175;DHT22;37240;50.104;20.010;2023-06-22T06:43:51;37.90;51.00
51175;DHT22;37240;50.104;20.010;2023-06-22T06:48:52;37.00;52.40
51175;DHT22;37240;50.104;20.010;2023-06-22T06:53:52;37.00;53.50
51175;DHT22;37240;50.104;20.010;2023-06-22T06:58:53;37.10;53.80
51175;DHT22;37240;50.104;20.010;2023-06-22T07:03:53;37.10;53.30
51175;DHT22;37240;50.104;20.010;2023-06-22T07:08:55;37.30;52.90
51175;DHT22;37240;50.104;20.010;2023-06-22T07:13:55;37.30;53.10
51175;DHT22;37240;50.104;20.010;2023-06-22T07:18:56;37.70;53.00
51175;DHT22;37240;50.104;20.010;2023-06-22T07:23:56;38.20;52.20
51175;DHT22;37240;50.104;20.010;2023-06-22T07:28:57;39.10;50.40
51175;DHT22;37240;50.104;20.010;2023-06-22T07:33:57;40.20;47.80
51175;DHT22;37240;50.104;20.010;2023-06-22T07:38:58;40.30;46.50
51175;DHT22;37240;50.104;20.010;2023-06-22T07:43:58;40.30;46.40
51175;DHT22;37240;50.104;20.010;2023-06-22T07:49:00;39.40;48.00
51175;DHT22;37240;50.104;20.010;2023-06-22T07:54:01;39.10;48.10
51175;DHT22;37240;50.104;20.010;2023-06-22T07:59:01;38.90;48.80
51175;DHT22;37240;50.104;20.010;2023-06-22T08:04:02;38.90;48.70
51175;DHT22;37240;50.104;20.010;2023-06-22T08:09:03;38.90;49.40
51175;DHT22;37240;50.104;20.010;2023-06-22T08:14:03;38.60;49.40
51175;DHT22;37240;50.104;20.010;2023-06-22T08:19:04;38.60;49.40
51175;DHT22;37240;50.104;20.010;2023-06-22T08:24:04;38.80;48.80
51175;DHT22;37240;50.104;20.010;2023-06-22T08:29:05;38.80;48.00
51175;DHT22;37240;50.104;20.010;2023-06-22T08:34:06;38.90;48.30
51175;DHT22;37240;50.104;20.010;2023-06-22T08:39:06;39.00;47.90
51175;DHT22;37240;50.104;20.010;2023-06-22T08:44:07;38.90;47.60
51175;DHT22;37240;50.104;20.010;2023-06-22T08:49:07;38.70;47.90
51175;DHT22;37240;50.104;20.010;2023-06-22T08:54:08;38.30;47.10
51175;DHT22;37240;50.104;20.010;2023-06-22T08:59:08;37.70;48.80
51175;DHT22;37240;50.104;20.010;2023-06-22T09:04:09;37.70;48.50
51175;DHT22;37240;50.104;20.010;2023-06-22T09:09:09;37.50;49.00
51175;DHT22;37240;50.104;20.010;2023-06-22T09:14:10;37.40;48.80
51175;DHT22;37240;50.104;20.010;2023-06-22T09:19:11;37.20;48.30
51175;DHT22;37240;50.104;20.010;2023-06-22T09:24:12;37.00;49.40
51175;DHT22;37240;50.104;20.010;2023-06-22T09:29:12;36.70;50.10
51175;DHT22;37240;50.104;20.010;2023-06-22T09:34:13;36.50;51.10
51175;DHT22;37240;50.104;20.010;2023-06-22T09:39:14;36.50;50.40
51175;DHT22;37240;50.104;20.010;2023-06-22T09:44:14;36.50;49.30
51175;DHT22;37240;50.104;20.010;2023-06-22T09:49:15;36.30;50.00
51175;DHT22;37240;50.104;20.010;2023-06-22T09:54:15;36.00;51.30
51175;DHT22;37240;50.104;20.010;2023-06-22T09:59:16;35.90;51.10
51175;DHT22;37240;50.104;20.010;2023-06-22T10:04:16;35.80;50.70
51175;DHT22;37240;50.104;20.010;2023-06-22T10:09:17;35.50;50.90
51175;DHT22;37240;50.104;20.010;2023-06-22T10:14:17;35.40;51.60
51175;DHT22;37240;50.104;20.010;2023-06-22T10:19:18;35.40;51.80
51175;DHT22;37240;50.104;20.010;2023-06-22T10:24:19;36.70;49.70
51175;DHT22;37240;50.104;20.010;2023-06-22T10:29:20;37.80;48.50
51175;DHT22;37240;50.104;20.010;2023-06-22T10:34:20;38.40;46.20
51175;DHT22;37240;50.104;20.010;2023-06-22T10:39:21;38.80;45.80
51175;DHT22;37240;50.104;20.010;2023-06-22T10:44:21;38.70;45.60
51175;DHT22;37240;50.104;20.010;2023-06-22T10:49:22;38.40;46.00
51175;DHT22;37240;50.104;20.010;2023-06-22T10:54:22;38.10;46.10
51175;DHT22;37240;50.104;20.010;2023-06-22T10:59:23;37.80;46.00
51175;DHT22;37240;50.104;20.010;2023-06-22T11:04:24;37.50;46.60
51175;DHT22;37240;50.104;20.010;2023-06-22T11:09:25;37.30;47.00
51175;DHT22;37240;50.104;20.010;2023-06-22T11:14:25;37.00;47.50
51175;DHT22;37240;50.104;20.010;2023-06-22T11:19:26;36.90;47.20
51175;DHT22;37240;50.104;20.010;2023-06-22T11:24:27;35.80;49.10
51175;DHT22;37240;50.104;20.010;2023-06-22T11:29:27;35.10;50.00
51175;DHT22;37240;50.104;20.010;2023-06-22T11:34:28;34.40;50.70
51175;DHT22;37240;50.104;20.010;2023-06-22T11:39:28;33.70;51.80
51175;DHT22;37240;50.104;20.010;2023-06-22T11:44:29;33.40;53.10
51175;DHT22;37240;50.104;20.010;2023-06-22T11:49:32;33.30;53.30
51175;DHT22;37240;50.104;20.010;2023-06-22T11:54:33;33.30;53.50
51175;DHT22;37240;50.104;20.010;2023-06-22T11:59:33;33.10;53.20
51175;DHT22;37240;50.104;20.010;2023-06-22T12:04:34;33.10;53.60
51175;DHT22;37240;50.104;20.010;2023-06-22T12:09:34;33.00;54.00
51175;DHT22;37240;50.104;20.010;2023-06-22T12:14:35;32.90;53.70
51175;DHT22;37240;50.104;20.010;2023-06-22T12:19:36;33.50;53.00
51175;DHT22;37240;50.104;20.010;2023-06-22T12:24:36;32.80;53.40
51175;DHT22;37240;50.104;20.010;2023-06-22T12:29:37;32.40;54.60
51175;DHT22;37240;50.104;20.010;2023-06-22T12:34:37;32.50;54.80
51175;DHT22;37240;50.104;20.010;2023-06-22T12:39:40;32.70;54.20
51175;DHT22;37240;50.104;20.010;2023-06-22T12:44:41;32.70;54.10
51175;DHT22;37240;50.104;20.010;2023-06-22T12:49:41;32.70;54.30
51175;DHT22;37240;50.104;20.010;2023-06-22T12:54:42;32.50;55.30
51175;DHT22;37240;50.104;20.010;2023-06-22T12:59:42;34.50;52.70
51175;DHT22;37240;50.104;20.010;2023-06-22T13:04:43;36.10;49.00
51175;DHT22;37240;50.104;20.010;2023-06-22T13:09:43;36.00;48.40
51175;DHT22;37240;50.104;20.010;2023-06-22T13:14:44;34.50;50.60
51175;DHT22;37240;50.104;20.010;2023-06-22T13:19:44;33.90;52.10
51175;DHT22;37240;50.104;20.010;2023-06-22T13:24:45;33.50;52.80
51175;DHT22;37240;50.104;20.010;2023-06-22T13:29:45;33.30;53.40
51175;DHT22;37240;50.104;20.010;2023-06-22T13:34:46;33.10;53.50
51175;DHT22;37240;50.104;20.010;2023-06-22T13:39:47;33.00;54.00
51175;DHT22;37240;50.104;20.010;2023-06-22T13:44:47;32.70;54.70
51175;DHT22;37240;50.104;20.010;2023-06-22T13:49:48;32.50;54.60
51175;DHT22;37240;50.104;20.010;2023-06-22T13:54:49;32.10;55.50
51175;DHT22;37240;50.104;20.010;2023-06-22T13:59:49;31.90;55.80
51175;DHT22;37240;50.104;20.010;2023-06-22T14:04:50;31.90;56.00
51175;DHT22;37240;50.104;20.010;2023-06-22T14:09:50;31.80;56.20
51175;DHT22;37240;50.104;20.010;2023-06-22T14:14:51;31.80;57.00
51175;DHT22;37240;50.104;20.010;2023-06-22T14:19:52;31.70;56.60
51175;DHT22;37240;50.104;20.010;2023-06-22T14:24:53;31.70;57.30
51175;DHT22;37240;50.104;20.010;2023-06-22T14:29:53;31.50;57.00
51175;DHT22;37240;50.104;20.010;2023-06-22T14:34:54;31.50;57.50
51175;DHT22;37240;50.104;20.010;2023-06-22T14:39:54;31.50;57.00
51175;DHT22;37240;50.104;20.010;2023-06-22T14:44:55;31.60;57.10
51175;DHT22;37240;50.104;20.010;2023-06-22T14:49:55;31.70;56.70
51175;DHT22;37240;50.104;20.010;2023-06-22T14:54:56;31.50;57.30
51175;DHT22;37240;50.104;20.010;2023-06-22T14:59:57;31.40;57.40
51175;DHT22;37240;50.104;20.010;2023-06-22T15:04:57;31.30;57.70
51175;DHT22;37240;50.104;20.010;2023-06-22T15:09:58;31.30;57.60
51175;DHT22;37240;50.104;20.010;2023-06-22T15:14:58;31.30;58.10
51175;DHT22;37240;50.104;20.010;2023-06-22T15:19:59;31.30;58.20
51175;DHT22;37240;50.104;20.010;2023-06-22T15:24:59;31.30;57.50
51175;DHT22;37240;50.104;20.010;2023-06-22T15:30:00;31.30;57.80
51175;DHT22;37240;50.104;20.010;2023-06-22T15:35:00;31.30;57.80
51175;DHT22;37240;50.104;20.010;2023-06-22T15:40:01;31.00;57.80
51175;DHT22;37240;50.104;20.010;2023-06-22T15:45:01;31.00;58.00
51175;DHT22;37240;50.104;20.010;2023-06-22T15:50:03;30.90;58.10
51175;DHT22;37240;50.104;20.010;2023-06-22T15:55:03;30.90;58.00
51175;DHT22;37240;50.104;20.010;2023-06-22T16:00:05;32.70;55.20
51175;DHT22;37240;50.104;20.010;2023-06-22T16:05:06;34.30;52.70
51175;DHT22;37240;50.104;20.010;2023-06-22T16:10:07;35.40;49.90
51175;DHT22;37240;50.104;20.010;2023-06-22T16:15:08;35.40;49.20
51175;DHT22;37240;50.104;20.010;2023-06-22T16:20:09;34.90;49.80
51175;DHT22;37240;50.104;20.010;2023-06-22T16:25:10;34.70;50.00
51175;DHT22;37240;50.104;20.010;2023-06-22T16:30:11;34.60;50.30
51175;DHT22;37240;50.104;20.010;2023-06-22T16:35:11;34.70;50.00
51175;DHT22;37240;50.104;20.010;2023-06-22T16:40:12;34.70;49.50
51175;DHT22;37240;50.104;20.010;2023-06-22T16:45:16;34.50;49.90
51175;DHT22;37240;50.104;20.010;2023-06-22T16:50:17;34.60;50.20
51175;DHT22;37240;50.104;20.010;2023-06-22T16:55:21;34.60;50.40
51175;DHT22;37240;50.104;20.010;2023-06-22T17:00:21;34.40;50.90
51175;DHT22;37240;50.104;20.010;2023-06-22T17:05:22;34.30;50.80
51175;DHT22;37240;50.104;20.010;2023-06-22T17:10:23;34.40;51.10
51175;DHT22;37240;50.104;20.010;2023-06-22T17:15:24;34.30;51.50
51175;DHT22;37240;50.104;20.010;2023-06-22T17:20:27;34.30;50.30
51175;DHT22;37240;50.104;20.010;2023-06-22T17:25:28;33.10;53.20
51175;DHT22;37240;50.104;20.010;2023-06-22T17:30:29;32.30;54.80
51175;DHT22;37240;50.104;20.010;2023-06-22T17:35:30;31.70;56.00
51175;DHT22;37240;50.104;20.010;2023-06-22T17:40:30;31.20;57.10
51175;DHT22;37240;50.104;20.010;2023-06-22T17:45:31;30.90;57.60
51175;DHT22;37240;50.104;20.010;2023-06-22T17:50:32;30.70;58.60
51175;DHT22;37240;50.104;20.010;2023-06-22T17:55:33;30.70;59.50
51175;DHT22;37240;50.104;20.010;2023-06-22T18:00:34;32.30;56.70
51175;DHT22;37240;50.104;20.010;2023-06-22T18:05:36;33.00;55.00
51175;DHT22;37240;50.104;20.010;2023-06-22T18:10:38;33.60;54.10
51175;DHT22;37240;50.104;20.010;2023-06-22T18:15:40;34.00;53.30
51175;DHT22;37240;50.104;20.010;2023-06-22T18:20:42;33.40;54.20
51175;DHT22;37240;50.104;20.010;2023-06-22T18:25:43;33.40;54.30
51175;DHT22;37240;50.104;20.010;2023-06-22T18:30:43;33.20;54.60
51175;DHT22;37240;50.104;20.010;2023-06-22T18:35:44;32.80;55.40
51175;DHT22;37240;50.104;20.010;2023-06-22T18:40:51;32.50;56.30
51175;DHT22;37240;50.104;20.010;2023-06-22T18:45:52;32.30;57.20
51175;DHT22;37240;50.104;20.010;2023-06-22T18:50:52;32.40;57.10
51175;DHT22;37240;50.104;20.010;2023-06-22T18:56:11;32.20;57.40
51175;DHT22;37240;50.104;20.010;2023-06-22T19:01:22;31.90;57.60
51175;DHT22;37240;50.104;20.010;2023-06-22T19:12:21;31.90;57.80
51175;DHT22;37240;50.104;20.010;2023-06-22T19:17:21;31.70;58.40
51175;DHT22;37240;50.104;20.010;2023-06-22T19:44:47;31.60;59.50
51175;DHT22;37240;50.104;20.010;2023-06-22T19:49:47;31.50;59.40
51175;DHT22;37240;50.104;20.010;2023-06-22T19:54:48;31.70;59.30
51175;DHT22;37240;50.104;20.010;2023-06-22T19:59:48;31.60;59.10
51175;DHT22;37240;50.104;20.010;2023-06-22T20:04:49;31.40;59.60
51175;DHT22;37240;50.104;20.010;2023-06-22T20:10:14;31.20;60.10
51175;DHT22;37240;50.104;20.010;2023-06-22T20:15:25;30.90;60.60
51175;DHT22;37240;50.104;20.010;2023-06-22T20:20:29;30.70;61.20
51175;DHT22;37240;50.104;20.010;2023-06-22T20:25:41;30.90;61.50
51175;DHT22;37240;50.104;20.010;2023-06-22T20:31:03;31.10;60.10
51175;DHT22;37240;50.104;20.010;2023-06-22T20:36:08;30.10;62.10
51175;DHT22;37240;50.104;20.010;2023-06-22T20:41:08;29.90;64.30
51175;DHT22;37240;50.104;20.010;2023-06-22T20:46:09;30.30;63.30
51175;DHT22;37240;50.104;20.010;2023-06-22T20:51:09;30.50;62.50
51175;DHT22;37240;50.104;20.010;2023-06-22T20:56:10;30.50;62.70
51175;DHT22;37240;50.104;20.010;2023-06-22T21:01:10;30.50;62.60
51175;DHT22;37240;50.104;20.010;2023-06-22T21:06:11;30.40;63.00
51175;DHT22;37240;50.104;20.010;2023-06-22T21:11:12;30.30;63.00
51175;DHT22;37240;50.104;20.010;2023-06-22T21:16:13;30.20;63.60
51175;DHT22;37240;50.104;20.010;2023-06-22T21:21:13;29.90;64.50
51175;DHT22;37240;50.104;20.010;2023-06-22T21:26:14;29.70;65.10
51175;DHT22;37240;50.104;20.010;2023-06-22T21:36:25;29.60;65.90
51175;DHT22;37240;50.104;20.010;2023-06-22T21:41:25;29.00;66.80
51175;DHT22;37240;50.104;20.010;2023-06-22T21:46:26;28.20;69.30
51175;DHT22;37240;50.104;20.010;2023-06-22T21:51:26;27.70;71.50
51175;DHT22;37240;50.104;20.010;2023-06-22T21:56:27;27.40;73.30
51175;DHT22;37240;50.104;20.010;2023-06-22T22:01:27;27.20;74.10
51175;DHT22;37240;50.104;20.010;2023-06-22T22:06:28;27.00;74.80
51175;DHT22;37240;50.104;20.010;2023-06-22T22:11:28;26.90;75.40
51175;DHT22;37240;50.104;20.010;2023-06-22T22:16:29;26.70;76.40
51175;DHT22;37240;50.104;20.010;2023-06-22T22:21:29;26.60;76.90
51175;DHT22;37240;50.104;20.010;2023-06-22T22:26:31;26.50;78.70
51175;DHT22;37240;50.104;20.010;2023-06-22T22:31:32;26.30;78.80
51175;DHT22;37240;50.104;20.010;2023-06-22T22:36:33;26.20;79.70
51175;DHT22;37240;50.104;20.010;2023-06-22T22:41:33;26.20;81.00
51175;DHT22;37240;50.104;20.010;2023-06-22T22:46:34;26.00;81.50
51175;DHT22;37240;50.104;20.010;2023-06-22T22:51:34;25.80;82.50
51175;DHT22;37240;50.104;20.010;2023-06-22T22:56:35;25.70;83.00
51175;DHT22;37240;50.104;20.010;2023-06-22T23:01:36;25.70;83.70
51175;DHT22;37240;50.104;20.010;2023-06-22T23:06:36;25.70;84.40
51175;DHT22;37240;50.104;20.010;2023-06-22T23:11:37;25.60;84.70
51175;DHT22;37240;50.104;20.010;2023-06-22T23:16:37;25.50;85.10
51175;DHT22;37240;50.104;20.010;2023-06-22T23:21:38;25.60;85.70
51175;DHT22;37240;50.104;20.010;2023-06-22T23:26:39;25.60;85.90
51175;DHT22;37240;50.104;20.010;2023-06-22T23:31:39;25.50;85.90
51175;DHT22;37240;50.104;20.010;2023-06-22T23:36:40;25.50;86.60
51175;DHT22;37240;50.104;20.010;2023-06-22T23:41:40;25.40;87.30
51175;DHT22;37240;50.104;20.010;2023-06-22T23:46:41;25.30;87.90
51175;DHT22;37240;50.104;20.010;2023-06-22T23:51:41;25.20;88.50
51175;DHT22;37240;50.104;20.010;2023-06-22T23:56:42;25.20;88.90
